sensor_id;sensor_type;location;lat;lon;timestamp;P1;durP1;ratioP1;P2;durP2;ratioP2
38779;SDS011;29273;49.962;9.768;2024-01-07T00:01:24;4.10;;;3.40;;
38779;SDS011;29273;49.962;9.768;2024-01-07T00:03:50;3.85;;;3.17;;
38779;SDS011;29273;49.962;9.768;2024-01-07T00:06:17;4.32;;;2.97;;
38779;SDS011;29273;49.962;9.768;2024-01-07T00:08:42;4.25;;;3.25;;
38779;SDS011;29273;49.962;9.768;2024-01-07T00:11:08;5.05;;;3.50;;
38779;SDS011;29273;49.962;9.768;2024-01-07T00:13:33;3.80;;;3.40;;
38779;SDS011;29273;49.962;9.768;2024-01-07T00:15:58;5.43;;;3.47;;
38779;SDS011;29273;49.962;9.768;2024-01-07T00:18:24;4.05;;;3.22;;
38779;SDS011;29273;49.962;9.768;2024-01-07T00:20:50;4.30;;;3.33;;
38779;SDS011;29273;49.962;9.768;2024-01-07T00:23:15;4.85;;;3.25;;
38779;SDS011;29273;49.962;9.768;2024-01-07T00:25:41;4.25;;;3.40;;
38779;SDS011;29273;49.962;9.768;2024-01-07T00:28:06;4.30;;;3.45;;
38779;SDS011;29273;49.962;9.768;2024-01-07T00:30:32;3.55;;;3.05;;
38779;SDS011;29273;49.962;9.768;2024-01-07T00:32:59;3.88;;;3.30;;
38779;SDS011;29273;49.962;9.768;2024-01-07T00:35:24;3.15;;;2.83;;
38779;SDS011;29273;49.962;9.768;2024-01-07T00:37:50;3.65;;;3.17;;
38779;SDS011;29273;49.962;9.768;2024-01-07T00:40:16;3.85;;;3.13;;
38779;SDS011;29273;49.962;9.768;2024-01-07T00:42:41;4.00;;;3.40;;
38779;SDS011;29273;49.962;9.768;2024-01-07T00:45:07;3.30;;;2.78;;
38779;SDS011;29273;49.962;9.768;2024-01-07T00:47:34;3.30;;;2.80;;
38779;SDS011;29273;49.962;9.768;2024-01-07T00:49:59;3.58;;;3.08;;
38779;SDS011;29273;49.962;9.768;2024-01-07T00:52:25;4.88;;;2.90;;
38779;SDS011;29273;49.962;9.768;2024-01-07T00:54:50;3.70;;;2.90;;
38779;SDS011;29273;49.962;9.768;2024-01-07T00:57:15;3.20;;;2.65;;
38779;SDS011;29273;49.962;9.768;2024-01-07T00:59:44;5.32;;;3.83;;
38779;SDS011;29273;49.962;9.768;2024-01-07T01:02:10;3.65;;;2.95;;
38779;SDS011;29273;49.962;9.768;2024-01-07T01:04:38;3.20;;;2.90;;
38779;SDS011;29273;49.962;9.768;2024-01-07T01:07:04;4.65;;;2.90;;
38779;SDS011;29273;49.962;9.768;2024-01-07T01:09:29;4.30;;;3.40;;
38779;SDS011;29273;49.962;9.768;2024-01-07T01:11:55;3.70;;;2.97;;
38779;SDS011;29273;49.962;9.768;2024-01-07T01:14:20;3.55;;;3.00;;
38779;SDS011;29273;49.962;9.768;2024-01-07T01:16:46;3.15;;;2.85;;
38779;SDS011;29273;49.962;9.768;2024-01-07T01:19:11;3.28;;;2.92;;
38779;SDS011;29273;49.962;9.768;2024-01-07T01:21:36;3.13;;;2.83;;
38779;SDS011;29273;49.962;9.768;2024-01-07T01:24:02;2.80;;;2.58;;
38779;SDS011;29273;49.962;9.768;2024-01-07T01:26:28;3.30;;;2.60;;
38779;SDS011;29273;49.962;9.768;2024-01-07T01:28:53;3.25;;;2.78;;
38779;SDS011;29273;49.962;9.768;2024-01-07T01:31:19;3.58;;;2.80;;
38779;SDS011;29273;49.962;9.768;2024-01-07T01:33:45;3.83;;;2.65;;
38779;SDS011;29273;49.962;9.768;2024-01-07T01:36:10;3.35;;;2.78;;
38779;SDS011;29273;49.962;9.768;2024-01-07T01:38:36;3.95;;;2.65;;
38779;SDS011;29273;49.962;9.768;2024-01-07T01:41:02;3.42;;;2.60;;
38779;SDS011;29273;49.962;9.768;2024-01-07T01:43:28;3.33;;;2.80;;
38779;SDS011;29273;49.962;9.768;2024-01-07T01:45:54;4.80;;;3.25;;
38779;SDS011;29273;49.962;9.768;2024-01-07T01:48:21;3.53;;;2.45;;
38779;SDS011;29273;49.962;9.768;2024-01-07T01:50:48;3.17;;;2.70;;
38779;SDS011;29273;49.962;9.768;2024-01-07T01:53:14;3.10;;;2.78;;
38779;SDS011;29273;49.962;9.768;2024-01-07T01:55:41;3.30;;;3.00;;
38779;SDS011;29273;49.962;9.768;2024-01-07T01:58:09;3.42;;;2.88;;
38779;SDS011;29273;49.962;9.768;2024-01-07T02:00:35;3.75;;;3.03;;
38779;SDS011;29273;49.962;9.768;2024-01-07T02:03:00;4.10;;;3.20;;
38779;SDS011;29273;49.962;9.768;2024-01-07T02:05:26;4.57;;;3.22;;
38779;SDS011;29273;49.962;9.768;2024-01-07T02:11:13;4.40;;;3.35;;
38779;SDS011;29273;49.962;9.768;2024-01-07T02:13:48;3.15;;;2.85;;
38779;SDS011;29273;49.962;9.768;2024-01-07T02:16:14;3.97;;;3.40;;
38779;SDS011;29273;49.962;9.768;2024-01-07T02:18:40;3.63;;;3.00;;
38779;SDS011;29273;49.962;9.768;2024-01-07T02:21:07;3.80;;;3.00;;
38779;SDS011;29273;49.962;9.768;2024-01-07T02:23:34;3.90;;;3.28;;
38779;SDS011;29273;49.962;9.768;2024-01-07T02:26:00;3.22;;;2.90;;
38779;SDS011;29273;49.962;9.768;2024-01-07T02:28:25;3.92;;;3.22;;
38779;SDS011;29273;49.962;9.768;2024-01-07T02:30:51;3.35;;;2.90;;
38779;SDS011;29273;49.962;9.768;2024-01-07T02:33:16;4.13;;;3.33;;
38779;SDS011;29273;49.962;9.768;2024-01-07T02:35:42;3.55;;;3.08;;
38779;SDS011;29273;49.962;9.768;2024-01-07T02:38:07;4.25;;;3.58;;
38779;SDS011;29273;49.962;9.768;2024-01-07T02:40:33;3.80;;;3.22;;
38779;SDS011;29273;49.962;9.768;2024-01-07T02:42:58;3.85;;;3.22;;
38779;SDS011;29273;49.962;9.768;2024-01-07T02:45:24;4.43;;;3.70;;
38779;SDS011;29273;49.962;9.768;2024-01-07T02:47:49;4.50;;;3.40;;
38779;SDS011;29273;49.962;9.768;2024-01-07T02:50:15;3.67;;;3.33;;
38779;SDS011;29273;49.962;9.768;2024-01-07T02:52:41;4.82;;;3.45;;
38779;SDS011;29273;49.962;9.768;2024-01-07T02:55:07;4.05;;;3.33;;
38779;SDS011;29273;49.962;9.768;2024-01-07T02:57:33;4.55;;;3.47;;
38779;SDS011;29273;49.962;9.768;2024-01-07T02:59:59;4.32;;;3.58;;
38779;SDS011;29273;49.962;9.768;2024-01-07T03:02:24;4.53;;;3.63;;
38779;SDS011;29273;49.962;9.768;2024-01-07T03:04:50;4.70;;;3.55;;
38779;SDS011;29273;49.962;9.768;2024-01-07T03:07:15;4.30;;;3.63;;
38779;SDS011;29273;49.962;9.768;2024-01-07T03:09:41;4.50;;;3.80;;
38779;SDS011;29273;49.962;9.768;2024-01-07T03:12:06;4.13;;;3.40;;
38779;SDS011;29273;49.962;9.768;2024-01-07T03:14:32;5.03;;;3.78;;
38779;SDS011;29273;49.962;9.768;2024-01-07T03:16:57;5.35;;;3.83;;
38779;SDS011;29273;49.962;9.768;2024-01-07T03:19:23;4.55;;;3.47;;
38779;SDS011;29273;49.962;9.768;2024-01-07T03:21:48;3.97;;;3.28;;
38779;SDS011;29273;49.962;9.768;2024-01-07T03:24:14;5.35;;;3.90;;
38779;SDS011;29273;49.962;9.768;2024-01-07T03:26:39;4.95;;;3.47;;
38779;SDS011;29273;49.962;9.768;2024-01-07T03:29:05;4.57;;;3.47;;
38779;SDS011;29273;49.962;9.768;2024-01-07T03:31:30;4.55;;;3.22;;
38779;SDS011;29273;49.962;9.768;2024-01-07T03:33:56;3.95;;;3.08;;
38779;SDS011;29273;49.962;9.768;2024-01-07T03:36:21;3.65;;;3.20;;
38779;SDS011;29273;49.962;9.768;2024-01-07T03:38:47;4.05;;;3.20;;
38779;SDS011;29273;49.962;9.768;2024-01-07T03:41:16;4.25;;;3.20;;
38779;SDS011;29273;49.962;9.768;2024-01-07T03:43:43;4.32;;;3.60;;
38779;SDS011;29273;49.962;9.768;2024-01-07T03:46:09;4.15;;;3.20;;
38779;SDS011;29273;49.962;9.768;2024-01-07T03:48:34;4.13;;;3.35;;
38779;SDS011;29273;49.962;9.768;2024-01-07T03:51:00;3.58;;;3.03;;
38779;SDS011;29273;49.962;9.768;2024-01-07T03:53:25;4.50;;;3.45;;
38779;SDS011;29273;49.962;9.768;2024-01-07T03:55:51;5.25;;;4.07;;
38779;SDS011;29273;49.962;9.768;2024-01-07T03:58:16;4.10;;;3.17;;
38779;SDS011;29273;49.962;9.768;2024-01-07T04:00:42;3.97;;;3.35;;
38779;SDS011;29273;49.962;9.768;2024-01-07T04:03:07;5.30;;;3.80;;
38779;SDS011;29273;49.962;9.768;2024-01-07T04:05:33;4.90;;;3.58;;
38779;SDS011;29273;49.962;9.768;2024-01-07T04:08:00;5.05;;;3.88;;
38779;SDS011;29273;49.962;9.768;2024-01-07T04:10:26;4.20;;;3.63;;
38779;SDS011;29273;49.962;9.768;2024-01-07T04:12:52;4.03;;;3.50;;
38779;SDS011;29273;49.962;9.768;2024-01-07T04:15:17;5.28;;;3.63;;
38779;SDS011;29273;49.962;9.768;2024-01-07T04:17:43;4.00;;;3.42;;
38779;SDS011;29273;49.962;9.768;2024-01-07T04:20:08;4.40;;;3.40;;
38779;SDS011;29273;49.962;9.768;2024-01-07T04:22:37;4.32;;;3.30;;
38779;SDS011;29273;49.962;9.768;2024-01-07T04:25:03;4.28;;;3.47;;
38779;SDS011;29273;49.962;9.768;2024-01-07T04:27:30;5.57;;;3.30;;
38779;SDS011;29273;49.962;9.768;2024-01-07T04:29:55;4.03;;;3.03;;
38779;SDS011;29273;49.962;9.768;2024-01-07T04:32:21;4.50;;;3.55;;
38779;SDS011;29273;49.962;9.768;2024-01-07T04:34:46;4.18;;;3.30;;
38779;SDS011;29273;49.962;9.768;2024-01-07T04:37:12;4.47;;;3.05;;
38779;SDS011;29273;49.962;9.768;2024-01-07T04:39:37;4.70;;;3.40;;
38779;SDS011;29273;49.962;9.768;2024-01-07T04:42:03;4.20;;;3.00;;
38779;SDS011;29273;49.962;9.768;2024-01-07T04:44:29;4.32;;;3.20;;
38779;SDS011;29273;49.962;9.768;2024-01-07T04:46:54;4.38;;;3.00;;
38779;SDS011;29273;49.962;9.768;2024-01-07T04:49:19;5.45;;;3.42;;
38779;SDS011;29273;49.962;9.768;2024-01-07T04:51:45;3.95;;;3.05;;
38779;SDS011;29273;49.962;9.768;2024-01-07T04:54:10;5.70;;;3.20;;
38779;SDS011;29273;49.962;9.768;2024-01-07T04:56:36;4.50;;;3.25;;
38779;SDS011;29273;49.962;9.768;2024-01-07T04:59:01;4.60;;;3.35;;
38779;SDS011;29273;49.962;9.768;2024-01-07T05:01:27;3.95;;;3.08;;
38779;SDS011;29273;49.962;9.768;2024-01-07T05:03:52;4.63;;;3.30;;
38779;SDS011;29273;49.962;9.768;2024-01-07T05:06:18;4.15;;;3.00;;
38779;SDS011;29273;49.962;9.768;2024-01-07T05:08:43;4.97;;;3.35;;
38779;SDS011;29273;49.962;9.768;2024-01-07T05:11:09;4.78;;;3.22;;
38779;SDS011;29273;49.962;9.768;2024-01-07T05:13:35;5.28;;;4.05;;
38779;SDS011;29273;49.962;9.768;2024-01-07T05:16:00;4.63;;;3.22;;
38779;SDS011;29273;49.962;9.768;2024-01-07T05:18:26;5.03;;;3.67;;
38779;SDS011;29273;49.962;9.768;2024-01-07T05:20:51;4.95;;;3.53;;
38779;SDS011;29273;49.962;9.768;2024-01-07T05:23:17;3.85;;;3.10;;
38779;SDS011;29273;49.962;9.768;2024-01-07T05:25:43;4.20;;;2.88;;
38779;SDS011;29273;49.962;9.768;2024-01-07T05:28:10;3.75;;;3.15;;
38779;SDS011;29273;49.962;9.768;2024-01-07T05:30:39;4.68;;;3.28;;
38779;SDS011;29273;49.962;9.768;2024-01-07T05:33:04;4.32;;;3.22;;
38779;SDS011;29273;49.962;9.768;2024-01-07T05:35:30;3.88;;;3.10;;
38779;SDS011;29273;49.962;9.768;2024-01-07T05:37:56;4.18;;;2.97;;
38779;SDS011;29273;49.962;9.768;2024-01-07T05:40:22;3.78;;;2.80;;
38779;SDS011;29273;49.962;9.768;2024-01-07T05:42:47;3.97;;;2.95;;
38779;SDS011;29273;49.962;9.768;2024-01-07T05:45:13;3.78;;;2.78;;
38779;SDS011;29273;49.962;9.768;2024-01-07T05:47:38;3.53;;;2.63;;
38779;SDS011;29273;49.962;9.768;2024-01-07T05:50:06;3.70;;;2.70;;
38779;SDS011;29273;49.962;9.768;2024-01-07T05:52:32;3.72;;;2.65;;
38779;SDS011;29273;49.962;9.768;2024-01-07T05:54:57;3.95;;;2.78;;
38779;SDS011;29273;49.962;9.768;2024-01-07T05:57:23;3.72;;;2.65;;
38779;SDS011;29273;49.962;9.768;2024-01-07T05:59:48;3.65;;;2.90;;
38779;SDS011;29273;49.962;9.768;2024-01-07T06:02:15;3.97;;;2.70;;
38779;SDS011;29273;49.962;9.768;2024-01-07T06:04:42;3.97;;;3.03;;
38779;SDS011;29273;49.962;9.768;2024-01-07T06:07:08;3.67;;;2.63;;
38779;SDS011;29273;49.962;9.768;2024-01-07T06:09:33;3.15;;;2.58;;
38779;SDS011;29273;49.962;9.768;2024-01-07T06:11:59;3.67;;;2.80;;
38779;SDS011;29273;49.962;9.768;2024-01-07T06:14:24;3.40;;;2.53;;
38779;SDS011;29273;49.962;9.768;2024-01-07T06:16:50;3.30;;;2.42;;
38779;SDS011;29273;49.962;9.768;2024-01-07T06:19:16;3.60;;;2.50;;
38779;SDS011;29273;49.962;9.768;2024-01-07T06:21:42;3.33;;;2.60;;
38779;SDS011;29273;49.962;9.768;2024-01-07T06:24:07;2.65;;;2.17;;
38779;SDS011;29273;49.962;9.768;2024-01-07T06:26:33;3.92;;;2.92;;
38779;SDS011;29273;49.962;9.768;2024-01-07T06:28:59;3.92;;;2.75;;
38779;SDS011;29273;49.962;9.768;2024-01-07T06:31:25;3.28;;;2.50;;
38779;SDS011;29273;49.962;9.768;2024-01-07T06:33:50;3.53;;;2.63;;
38779;SDS011;29273;49.962;9.768;2024-01-07T06:36:16;3.20;;;2.55;;
38779;SDS011;29273;49.962;9.768;2024-01-07T06:38:41;4.53;;;2.75;;
38779;SDS011;29273;49.962;9.768;2024-01-07T06:41:07;3.58;;;2.58;;
38779;SDS011;29273;49.962;9.768;2024-01-07T06:43:32;3.92;;;2.58;;
38779;SDS011;29273;49.962;9.768;2024-01-07T06:45:58;3.92;;;2.60;;
38779;SDS011;29273;49.962;9.768;2024-01-07T06:48:24;3.55;;;2.80;;
38779;SDS011;29273;49.962;9.768;2024-01-07T06:50:49;3.75;;;2.90;;
38779;SDS011;29273;49.962;9.768;2024-01-07T06:53:15;3.70;;;3.10;;
38779;SDS011;29273;49.962;9.768;2024-01-07T06:55:41;4.40;;;3.00;;
38779;SDS011;29273;49.962;9.768;2024-01-07T06:58:07;2.90;;;2.35;;
38779;SDS011;29273;49.962;9.768;2024-01-07T07:00:32;3.22;;;2.55;;
38779;SDS011;29273;49.962;9.768;2024-01-07T07:02:58;3.28;;;2.80;;
38779;SDS011;29273;49.962;9.768;2024-01-07T07:05:23;3.72;;;2.85;;
38779;SDS011;29273;49.962;9.768;2024-01-07T07:07:49;3.88;;;2.75;;
38779;SDS011;29273;49.962;9.768;2024-01-07T07:10:14;3.63;;;2.90;;
38779;SDS011;29273;49.962;9.768;2024-01-07T07:12:40;3.53;;;2.63;;
38779;SDS011;29273;49.962;9.768;2024-01-07T07:15:06;3.55;;;2.63;;
38779;SDS011;29273;49.962;9.768;2024-01-07T07:17:31;3.95;;;3.10;;
38779;SDS011;29273;49.962;9.768;2024-01-07T07:19:57;2.97;;;2.58;;
38779;SDS011;29273;49.962;9.768;2024-01-07T07:22:22;3.38;;;2.45;;
38779;SDS011;29273;49.962;9.768;2024-01-07T07:24:48;3.78;;;2.83;;
38779;SDS011;29273;49.962;9.768;2024-01-07T07:27:13;3.15;;;2.47;;
38779;SDS011;29273;49.962;9.768;2024-01-07T07:29:38;3.13;;;2.28;;
38779;SDS011;29273;49.962;9.768;2024-01-07T07:32:04;2.63;;;2.28;;
38779;SDS011;29273;49.962;9.768;2024-01-07T07:34:30;2.70;;;2.38;;
38779;SDS011;29273;49.962;9.768;2024-01-07T07:36:55;3.05;;;2.40;;
38779;SDS011;29273;49.962;9.768;2024-01-07T07:39:21;2.05;;;1.85;;
38779;SDS011;29273;49.962;9.768;2024-01-07T07:41:46;3.08;;;2.25;;
38779;SDS011;29273;49.962;9.768;2024-01-07T07:44:13;2.85;;;2.22;;
38779;SDS011;29273;49.962;9.768;2024-01-07T07:46:38;3.17;;;2.40;;
38779;SDS011;29273;49.962;9.768;2024-01-07T07:49:04;2.78;;;2.30;;
38779;SDS011;29273;49.962;9.768;2024-01-07T07:51:29;2.67;;;2.15;;
38779;SDS011;29273;49.962;9.768;2024-01-07T07:53:55;3.08;;;2.10;;
38779;SDS011;29273;49.962;9.768;2024-01-07T07:56:20;3.40;;;2.50;;
38779;SDS011;29273;49.962;9.768;2024-01-07T07:58:46;3.22;;;2.53;;
38779;SDS011;29273;49.962;9.768;2024-01-07T08:01:11;2.80;;;2.38;;
38779;SDS011;29273;49.962;9.768;2024-01-07T08:03:37;3.80;;;2.78;;
38779;SDS011;29273;49.962;9.768;2024-01-07T08:06:02;3.35;;;2.28;;
38779;SDS011;29273;49.962;9.768;2024-01-07T08:08:28;2.63;;;2.28;;
38779;SDS011;29273;49.962;9.768;2024-01-07T08:10:53;2.47;;;2.17;;
38779;SDS011;29273;49.962;9.768;2024-01-07T08:13:20;2.50;;;2.30;;
38779;SDS011;29273;49.962;9.768;2024-01-07T08:15:45;3.70;;;2.42;;
38779;SDS011;29273;49.962;9.768;2024-01-07T08:18:10;3.15;;;2.47;;
38779;SDS011;29273;49.962;9.768;2024-01-07T08:20:36;2.80;;;2.50;;
38779;SDS011;29273;49.962;9.768;2024-01-07T08:23:01;2.85;;;2.47;;
38779;SDS011;29273;49.962;9.768;2024-01-07T08:25:27;3.42;;;2.70;;
38779;SDS011;29273;49.962;9.768;2024-01-07T08:27:53;2.90;;;2.35;;
38779;SDS011;29273;49.962;9.768;2024-01-07T08:30:18;3.13;;;2.60;;
38779;SDS011;29273;49.962;9.768;2024-01-07T08:32:44;3.53;;;2.58;;
38779;SDS011;29273;49.962;9.768;2024-01-07T08:35:09;2.58;;;2.38;;
38779;SDS011;29273;49.962;9.768;2024-01-07T08:37:35;2.10;;;1.90;;
38779;SDS011;29273;49.962;9.768;2024-01-07T08:40:00;3.85;;;2.45;;
38779;SDS011;29273;49.962;9.768;2024-01-07T08:42:26;2.90;;;2.30;;
38779;SDS011;29273;49.962;9.768;2024-01-07T08:44:52;3.38;;;2.60;;
38779;SDS011;29273;49.962;9.768;2024-01-07T08:47:17;3.00;;;2.42;;
38779;SDS011;29273;49.962;9.768;2024-01-07T08:49:43;4.05;;;3.03;;
38779;SDS011;29273;49.962;9.768;2024-01-07T08:52:08;4.20;;;3.13;;
38779;SDS011;29273;49.962;9.768;2024-01-07T08:54:34;2.80;;;2.45;;
38779;SDS011;29273;49.962;9.768;2024-01-07T08:57:00;2.83;;;2.42;;
38779;SDS011;29273;49.962;9.768;2024-01-07T08:59:25;3.10;;;2.53;;
38779;SDS011;29273;49.962;9.768;2024-01-07T09:01:51;3.80;;;2.85;;
38779;SDS011;29273;49.962;9.768;2024-01-07T09:04:16;4.43;;;2.90;;
38779;SDS011;29273;49.962;9.768;2024-01-07T09:06:43;5.22;;;3.65;;
38779;SDS011;29273;49.962;9.768;2024-01-07T09:09:09;4.38;;;3.58;;
38779;SDS011;29273;49.962;9.768;2024-01-07T09:11:35;5.03;;;3.95;;
38779;SDS011;29273;49.962;9.768;2024-01-07T09:14:01;4.50;;;3.78;;
38779;SDS011;29273;49.962;9.768;2024-01-07T09:16:27;3.47;;;2.92;;
38779;SDS011;29273;49.962;9.768;2024-01-07T09:18:52;3.92;;;3.30;;
38779;SDS011;29273;49.962;9.768;2024-01-07T09:21:18;5.30;;;3.80;;
38779;SDS011;29273;49.962;9.768;2024-01-07T09:23:44;4.88;;;3.70;;
38779;SDS011;29273;49.962;9.768;2024-01-07T09:26:09;5.72;;;3.63;;
38779;SDS011;29273;49.962;9.768;2024-01-07T09:28:35;5.00;;;3.58;;
38779;SDS011;29273;49.962;9.768;2024-01-07T09:31:00;5.68;;;3.83;;
38779;SDS011;29273;49.962;9.768;2024-01-07T09:33:26;5.25;;;3.33;;
38779;SDS011;29273;49.962;9.768;2024-01-07T09:35:51;4.40;;;3.63;;
38779;SDS011;29273;49.962;9.768;2024-01-07T09:38:17;4.68;;;3.75;;
38779;SDS011;29273;49.962;9.768;2024-01-07T09:40:42;5.15;;;3.58;;
38779;SDS011;29273;49.962;9.768;2024-01-07T09:43:08;5.10;;;3.70;;
38779;SDS011;29273;49.962;9.768;2024-01-07T09:45:36;5.85;;;4.15;;
38779;SDS011;29273;49.962;9.768;2024-01-07T09:48:03;4.60;;;3.42;;
38779;SDS011;29273;49.962;9.768;2024-01-07T09:50:29;5.88;;;3.85;;
38779;SDS011;29273;49.962;9.768;2024-01-07T09:52:56;4.72;;;3.72;;
38779;SDS011;29273;49.962;9.768;2024-01-07T09:57:56;4.85;;;3.50;;
38779;SDS011;29273;49.962;9.768;2024-01-07T10:00:22;4.95;;;3.97;;
38779;SDS011;29273;49.962;9.768;2024-01-07T10:02:47;5.13;;;3.75;;
38779;SDS011;29273;49.962;9.768;2024-01-07T10:05:13;5.03;;;4.05;;
38779;SDS011;29273;49.962;9.768;2024-01-07T10:07:38;5.60;;;3.97;;
38779;SDS011;29273;49.962;9.768;2024-01-07T10:10:12;6.72;;;4.70;;
38779;SDS011;29273;49.962;9.768;2024-01-07T10:12:38;6.53;;;4.80;;
38779;SDS011;29273;49.962;9.768;2024-01-07T10:15:04;5.65;;;4.28;;
38779;SDS011;29273;49.962;9.768;2024-01-07T10:17:30;5.50;;;4.22;;
38779;SDS011;29273;49.962;9.768;2024-01-07T10:19:56;6.28;;;3.85;;
38779;SDS011;29273;49.962;9.768;2024-01-07T10:22:22;7.22;;;5.40;;
38779;SDS011;29273;49.962;9.768;2024-01-07T10:24:47;5.35;;;4.43;;
38779;SDS011;29273;49.962;9.768;2024-01-07T10:27:14;5.30;;;3.88;;
38779;SDS011;29273;49.962;9.768;2024-01-07T10:29:39;10.27;;;6.97;;
38779;SDS011;29273;49.962;9.768;2024-01-07T10:32:05;15.07;;;9.57;;
38779;SDS011;29273;49.962;9.768;2024-01-07T10:34:31;21.10;;;13.75;;
38779;SDS011;29273;49.962;9.768;2024-01-07T10:36:58;15.85;;;10.52;;
38779;SDS011;29273;49.962;9.768;2024-01-07T10:39:25;12.55;;;7.70;;
38779;SDS011;29273;49.962;9.768;2024-01-07T10:41:51;8.55;;;6.10;;
38779;SDS011;29273;49.962;9.768;2024-01-07T10:44:22;7.85;;;5.55;;
38779;SDS011;29273;49.962;9.768;2024-01-07T10:46:48;6.82;;;5.03;;
38779;SDS011;29273;49.962;9.768;2024-01-07T10:49:20;6.35;;;4.95;;
38779;SDS011;29273;49.962;9.768;2024-01-07T10:51:49;6.57;;;4.68;;
38779;SDS011;29273;49.962;9.768;2024-01-07T10:54:21;5.95;;;4.18;;
38779;SDS011;29273;49.962;9.768;2024-01-07T10:56:53;5.05;;;4.10;;
38779;SDS011;29273;49.962;9.768;2024-01-07T10:59:24;4.30;;;3.70;;
38779;SDS011;29273;49.962;9.768;2024-01-07T11:01:51;4.82;;;3.83;;
38779;SDS011;29273;49.962;9.768;2024-01-07T11:04:22;5.13;;;4.30;;
38779;SDS011;29273;49.962;9.768;2024-01-07T11:06:59;5.03;;;3.53;;
38779;SDS011;29273;49.962;9.768;2024-01-07T11:12:25;4.03;;;3.30;;
38779;SDS011;29273;49.962;9.768;2024-01-07T11:14:51;5.28;;;3.50;;
38779;SDS011;29273;49.962;9.768;2024-01-07T11:20:02;3.78;;;2.90;;
38779;SDS011;29273;49.962;9.768;2024-01-07T11:22:30;3.80;;;3.00;;
38779;SDS011;29273;49.962;9.768;2024-01-07T11:24:56;3.33;;;2.78;;
38779;SDS011;29273;49.962;9.768;2024-01-07T11:27:23;3.17;;;2.67;;
38779;SDS011;29273;49.962;9.768;2024-01-07T11:29:56;5.80;;;2.85;;
38779;SDS011;29273;49.962;9.768;2024-01-07T11:32:23;4.00;;;2.78;;
38779;SDS011;29273;49.962;9.768;2024-01-07T11:34:53;3.80;;;2.85;;
38779;SDS011;29273;49.962;9.768;2024-01-07T11:37:19;4.25;;;2.90;;
38779;SDS011;29273;49.962;9.768;2024-01-07T11:39:46;4.10;;;3.10;;
38779;SDS011;29273;49.962;9.768;2024-01-07T11:42:13;4.47;;;3.13;;
38779;SDS011;29273;49.962;9.768;2024-01-07T11:44:45;4.03;;;2.95;;
38779;SDS011;29273;49.962;9.768;2024-01-07T11:47:15;4.32;;;3.35;;
38779;SDS011;29273;49.962;9.768;2024-01-07T11:49:41;4.40;;;3.30;;
38779;SDS011;29273;49.962;9.768;2024-01-07T11:52:07;5.47;;;3.67;;
38779;SDS011;29273;49.962;9.768;2024-01-07T11:54:34;4.72;;;3.35;;
38779;SDS011;29273;49.962;9.768;2024-01-07T11:57:00;4.32;;;3.03;;
38779;SDS011;29273;49.962;9.768;2024-01-07T11:59:26;3.92;;;3.08;;
38779;SDS011;29273;49.962;9.768;2024-01-07T12:01:51;3.83;;;2.90;;
38779;SDS011;29273;49.962;9.768;2024-01-07T12:04:17;3.67;;;2.90;;
38779;SDS011;29273;49.962;9.768;2024-01-07T12:06:43;3.80;;;2.90;;
38779;SDS011;29273;49.962;9.768;2024-01-07T12:09:11;3.97;;;2.90;;
38779;SDS011;29273;49.962;9.768;2024-01-07T12:11:37;3.85;;;2.80;;
38779;SDS011;29273;49.962;9.768;2024-01-07T12:14:04;4.32;;;3.10;;
38779;SDS011;29273;49.962;9.768;2024-01-07T12:16:29;4.22;;;3.00;;
38779;SDS011;29273;49.962;9.768;2024-01-07T12:18:55;3.65;;;3.03;;
38779;SDS011;29273;49.962;9.768;2024-01-07T12:21:20;3.97;;;2.88;;
38779;SDS011;29273;49.962;9.768;2024-01-07T12:23:50;4.00;;;2.50;;
38779;SDS011;29273;49.962;9.768;2024-01-07T12:26:16;2.92;;;2.58;;
38779;SDS011;29273;49.962;9.768;2024-01-07T12:28:42;3.58;;;2.63;;
38779;SDS011;29273;49.962;9.768;2024-01-07T12:31:08;4.40;;;3.05;;
38779;SDS011;29273;49.962;9.768;2024-01-07T12:33:36;3.55;;;2.95;;
38779;SDS011;29273;49.962;9.768;2024-01-07T12:36:03;3.35;;;2.58;;
38779;SDS011;29273;49.962;9.768;2024-01-07T12:38:28;3.25;;;2.80;;
38779;SDS011;29273;49.962;9.768;2024-01-07T12:40:54;3.58;;;2.58;;
38779;SDS011;29273;49.962;9.768;2024-01-07T12:43:21;4.25;;;3.00;;
38779;SDS011;29273;49.962;9.768;2024-01-07T12:45:47;3.58;;;2.47;;
38779;SDS011;29273;49.962;9.768;2024-01-07T12:48:13;2.88;;;2.55;;
38779;SDS011;29273;49.962;9.768;2024-01-07T12:50:39;3.95;;;3.00;;
38779;SDS011;29273;49.962;9.768;2024-01-07T12:53:04;3.05;;;2.50;;
38779;SDS011;29273;49.962;9.768;2024-01-07T12:55:30;4.00;;;3.00;;
38779;SDS011;29273;49.962;9.768;2024-01-07T12:57:56;3.40;;;2.78;;
38779;SDS011;29273;49.962;9.768;2024-01-07T13:00:24;3.75;;;3.10;;
38779;SDS011;29273;49.962;9.768;2024-01-07T13:02:50;4.10;;;2.88;;
38779;SDS011;29273;49.962;9.768;2024-01-07T13:05:16;3.22;;;2.70;;
38779;SDS011;29273;49.962;9.768;2024-01-07T13:07:42;3.45;;;2.80;;
38779;SDS011;29273;49.962;9.768;2024-01-07T13:10:08;3.80;;;2.90;;
38779;SDS011;29273;49.962;9.768;2024-01-07T13:12:36;4.55;;;2.80;;
38779;SDS011;29273;49.962;9.768;2024-01-07T13:15:03;4.72;;;3.35;;
38779;SDS011;29273;49.962;9.768;2024-01-07T13:17:29;4.38;;;3.22;;
38779;SDS011;29273;49.962;9.768;2024-01-07T13:19:55;4.97;;;3.60;;
38779;SDS011;29273;49.962;9.768;2024-01-07T13:22:21;4.68;;;3.70;;
38779;SDS011;29273;49.962;9.768;2024-01-07T13:24:47;4.15;;;3.22;;
38779;SDS011;29273;49.962;9.768;2024-01-07T13:27:12;3.75;;;2.95;;
38779;SDS011;29273;49.962;9.768;2024-01-07T13:29:38;4.18;;;2.88;;
38779;SDS011;29273;49.962;9.768;2024-01-07T13:32:04;4.30;;;3.08;;
38779;SDS011;29273;49.962;9.768;2024-01-07T13:34:30;4.47;;;3.05;;
38779;SDS011;29273;49.962;9.768;2024-01-07T13:36:55;3.35;;;2.42;;
38779;SDS011;29273;49.962;9.768;2024-01-07T13:39:21;3.47;;;2.50;;
38779;SDS011;29273;49.962;9.768;2024-01-07T13:41:46;3.13;;;2.47;;
38779;SDS011;29273;49.962;9.768;2024-01-07T13:44:13;3.95;;;3.17;;
38779;SDS011;29273;49.962;9.768;2024-01-07T13:46:47;4.88;;;2.80;;
38779;SDS011;29273;49.962;9.768;2024-01-07T13:49:13;3.50;;;2.60;;
38779;SDS011;29273;49.962;9.768;2024-01-07T13:51:40;4.72;;;3.17;;
38779;SDS011;29273;49.962;9.768;2024-01-07T13:54:06;3.95;;;2.78;;
38779;SDS011;29273;49.962;9.768;2024-01-07T13:56:32;3.50;;;2.72;;
38779;SDS011;29273;49.962;9.768;2024-01-07T13:59:01;3.20;;;2.40;;
38779;SDS011;29273;49.962;9.768;2024-01-07T14:01:28;4.50;;;3.03;;
38779;SDS011;29273;49.962;9.768;2024-01-07T14:03:54;3.97;;;2.67;;
38779;SDS011;29273;49.962;9.768;2024-01-07T14:06:21;3.80;;;2.75;;
38779;SDS011;29273;49.962;9.768;2024-01-07T14:08:46;3.60;;;2.72;;
38779;SDS011;29273;49.962;9.768;2024-01-07T14:11:12;3.67;;;2.80;;
38779;SDS011;29273;49.962;9.768;2024-01-07T14:13:37;3.15;;;2.35;;
38779;SDS011;29273;49.962;9.768;2024-01-07T14:16:03;3.00;;;2.25;;
38779;SDS011;29273;49.962;9.768;2024-01-07T14:18:29;2.92;;;2.28;;
38779;SDS011;29273;49.962;9.768;2024-01-07T14:20:54;3.13;;;2.45;;
38779;SDS011;29273;49.962;9.768;2024-01-07T14:23:20;3.50;;;2.40;;
38779;SDS011;29273;49.962;9.768;2024-01-07T14:25:45;4.10;;;2.47;;
38779;SDS011;29273;49.962;9.768;2024-01-07T14:28:11;3.75;;;2.58;;
38779;SDS011;29273;49.962;9.768;2024-01-07T14:30:36;3.75;;;2.50;;
38779;SDS011;29273;49.962;9.768;2024-01-07T14:33:02;2.88;;;2.20;;
38779;SDS011;29273;49.962;9.768;2024-01-07T14:35:28;2.72;;;2.15;;
38779;SDS011;29273;49.962;9.768;2024-01-07T14:37:55;3.55;;;2.20;;
38779;SDS011;29273;49.962;9.768;2024-01-07T14:40:23;3.00;;;2.13;;
38779;SDS011;29273;49.962;9.768;2024-01-07T14:42:49;3.03;;;2.30;;
38779;SDS011;29273;49.962;9.768;2024-01-07T14:45:14;3.58;;;2.28;;
38779;SDS011;29273;49.962;9.768;2024-01-07T14:47:40;2.08;;;1.88;;
38779;SDS011;29273;49.962;9.768;2024-01-07T14:50:05;2.60;;;1.83;;
38779;SDS011;29273;49.962;9.768;2024-01-07T14:52:32;2.53;;;1.70;;